King Salmon Airport (AKN)

 

Airport Diagram
Current Weather/Forecast (VFR Conditions)
METAR PAKN 100454Z 02007KT 10SM OVC065 17/08 A2984 RMK AO2 SLP106 T01720083
TAF PAKN 092331Z 1000/1024 32010G18KT P6SM VCSH SCT040 BKN050 FM100200 30006KT P6SM BKN050 BKN100 FM101700 29006KT P6SM SCT025 BKN050

All Charts

Inbound Traffic (Arrivals)

No inbound traffic.


Outbound Traffic (Departures)

No outbound traffic.